Time;durP1;ratioP1;P1;durP2;ratioP2;P2;SDS_P1;SDS_P2;PMS_P1;PMS_P2;Temp;Humidity;BMP_temperature;BMP_pressure;BME280_temperature;BME280_humidity;BME280_pressure;Samples;Min_cycle;Max_cycle;Signal;HPM_P1;HPM_P2
2023/04/10 00:01:21;;;;;;;;;;;;;;;7.55;69.40;102053.22;5027293;28;1953;-76
2023/04/10 00:03:47;;;;;;;;;;;;;;;7.54;69.41;102051.56;5035969;28;1373;-77
2023/04/10 00:06:12;;;;;;;;;;;;;;;7.53;69.61;102049.91;5036688;28;1561;-77
2023/04/10 00:08:37;;;;;;;;;;;;;;;7.51;69.72;102046.53;5035655;28;1106;-76
2023/04/10 00:11:02;;;;;;;;;;;;;;;7.47;69.67;102045.88;5040865;28;1068;-76
2023/04/10 00:13:28;;;;;;;;;;;;;;;7.44;69.53;102031.34;5036642;28;1094;-76
2023/04/10 00:15:53;;;;;;;;;;;;;;;7.39;69.96;102025.56;5015346;28;1371;-76
2023/04/10 00:18:19;;;;;;;;;;;;;;;7.38;70.57;102020.50;5036168;28;945;-76
2023/04/10 00:20:44;;;;;;;;;;;;;;;7.35;70.26;102016.34;5034037;28;1951;-76
2023/04/10 00:23:09;;;;;;;;;;;;;;;7.35;70.87;102011.19;5039292;28;1150;-76
2023/04/10 00:25:34;;;;;;;;;;;;;;;7.31;70.65;102012.22;5038966;28;1065;-77
2023/04/10 00:28:01;;;;;;;;;;;;;;;7.30;70.15;102002.00;5036466;28;1075;-76
2023/04/10 00:30:26;;;;;;;;;;;;;;;7.26;71.31;101998.72;5032059;28;1072;-76
2023/04/10 00:32:51;;;;;;;;;;;;;;;7.24;70.59;101991.97;5023694;28;1117;-76
2023/04/10 00:35:17;;;;;;;;;;;;;;;7.22;70.73;101989.44;5031808;28;1140;-76
2023/04/10 00:37:42;;;;;;;;;;;;;;;7.22;71.58;101984.28;5035523;28;1118;-76
2023/04/10 00:40:07;;;;;;;;;;;;;;;7.24;71.32;101990.22;5017941;28;2281;-76
2023/04/10 00:42:32;;;;;;;;;;;;;;;7.23;71.11;101975.66;5045322;28;2003;-75
2023/04/10 00:44:58;;;;;;;;;;;;;;;7.25;71.10;101984.16;5012493;28;1360;-76
2023/04/10 00:47:24;;;;;;;;;;;;;;;7.25;71.34;101978.97;5042631;28;1112;-76
2023/04/10 00:49:49;;;;;;;;;;;;;;;7.29;70.78;101975.34;5040847;28;1013;-76
2023/04/10 00:52:15;;;;;;;;;;;;;;;7.33;71.64;101976.00;5037130;28;1062;-75
2023/04/10 00:54:40;;;;;;;;;;;;;;;7.35;71.60;101975.03;5039303;28;1929;-76
2023/04/10 00:57:06;;;;;;;;;;;;;;;7.41;71.41;101968.75;5040591;28;1096;-76
2023/04/10 00:59:32;;;;;;;;;;;;;;;7.47;71.41;101972.75;5014491;28;1287;-76
2023/04/10 01:01:57;;;;;;;;;;;;;;;7.51;71.42;101963.94;5041772;28;2253;-76
2023/04/10 01:04:25;;;;;;;;;;;;;;;7.54;71.22;101968.94;5034915;28;1210;-76
2023/04/10 01:06:53;;;;;;;;;;;;;;;7.56;71.37;101962.78;5038047;28;1036;-76
2023/04/10 01:09:28;;;;;;;;;;;;;;;7.60;70.34;101960.91;5037315;28;1100;-76
2023/04/10 01:11:55;;;;;;;;;;;;;;;7.61;71.23;101954.81;5034766;28;1047;-76
2023/04/10 01:14:20;;;;;;;;;;;;;;;7.64;71.46;101957.25;5039304;28;1184;-76
2023/04/10 01:16:50;;;;;;;;;;;;;;;7.64;71.11;101954.69;5029861;28;1172;-76
2023/04/10 01:19:45;;;;;;;;;;;;;;;7.66;71.04;101958.84;5019616;28;1221;-77
2023/04/10 01:22:12;;;;;;;;;;;;;;;7.67;71.40;101962.25;5028191;28;1943;-76
2023/04/10 01:24:56;;;;;;;;;;;;;;;7.66;70.96;101950.25;5035263;28;1358;-76
2023/04/10 01:27:35;;;;;;;;;;;;;;;7.66;70.90;101952.84;5039632;28;1003;-76
2023/04/10 01:30:01;;;;;;;;;;;;;;;7.64;70.59;101946.94;5039798;28;1055;-76
2023/04/10 01:32:28;;;;;;;;;;;;;;;7.62;71.16;101951.31;5045045;28;995;-76
2023/04/10 01:34:55;;;;;;;;;;;;;;;7.60;71.42;101945.41;5030843;28;1995;-77
2023/04/10 01:37:22;;;;;;;;;;;;;;;7.60;71.12;101953.16;5035389;28;1121;-76
2023/04/10 01:39:57;;;;;;;;;;;;;;;7.60;71.39;101948.00;5025489;28;1331;-76
2023/04/10 01:42:24;;;;;;;;;;;;;;;7.58;71.30;101939.50;5036393;28;1890;-76
2023/04/10 01:44:51;;;;;;;;;;;;;;;7.56;71.64;101941.31;5043752;28;1142;-76
2023/04/10 01:47:17;;;;;;;;;;;;;;;7.54;71.79;101943.13;5039534;28;1083;-76
2023/04/10 01:49:43;;;;;;;;;;;;;;;7.54;71.65;101925.06;5016824;28;1410;-76
2023/04/10 01:52:10;;;;;;;;;;;;;;;7.55;71.37;101937.06;5035671;28;1039;-76
2023/04/10 01:54:35;;;;;;;;;;;;;;;7.54;71.26;101927.66;5037561;28;1002;-76
2023/04/10 01:57:03;;;;;;;;;;;;;;;7.52;72.13;101929.47;5036034;28;1507;-76
2023/04/10 01:59:30;;;;;;;;;;;;;;;7.49;72.22;101930.47;5034098;28;1010;-77
2023/04/10 02:01:58;;;;;;;;;;;;;;;7.50;72.34;101926.13;5038495;28;1967;-76
2023/04/10 02:04:25;;;;;;;;;;;;;;;7.45;72.59;101924.63;5032026;28;1121;-77
2023/04/10 02:07:01;;;;;;;;;;;;;;;7.42;71.71;101919.63;5030680;28;1088;-76
2023/04/10 02:09:32;;;;;;;;;;;;;;;7.39;72.01;101914.59;5036064;28;1045;-76
2023/04/10 02:12:00;;;;;;;;;;;;;;;7.35;72.35;101910.53;5033931;28;1214;-76
2023/04/10 02:14:28;;;;;;;;;;;;;;;7.33;72.50;101914.06;5033675;28;1227;-76
2023/04/10 02:16:54;;;;;;;;;;;;;;;7.31;72.78;101903.84;5040436;28;1098;-76
2023/04/10 02:19:21;;;;;;;;;;;;;;;7.28;72.70;101916.88;5038611;28;1248;-75
2023/04/10 02:21:46;;;;;;;;;;;;;;;7.24;72.82;101910.22;5038686;28;2063;-76
2023/04/10 02:24:11;;;;;;;;;;;;;;;7.21;72.83;101910.38;5035202;28;1033;-76
2023/04/10 02:26:46;;;;;;;;;;;;;;;7.18;73.14;101910.53;5042607;28;1148;-76
2023/04/10 02:29:12;;;;;;;;;;;;;;;7.12;72.76;101916.00;5036605;28;1459;-76
2023/04/10 02:31:37;;;;;;;;;;;;;;;7.10;72.92;101912.66;5035765;28;982;-76
2023/04/10 02:34:02;;;;;;;;;;;;;;;7.06;73.38;101900.84;5037009;28;1103;-76
2023/04/10 02:36:28;;;;;;;;;;;;;;;7.04;72.95;101907.78;5037184;28;1069;-76
2023/04/10 02:38:53;;;;;;;;;;;;;;;6.99;73.49;101896.88;5037208;28;1385;-76
2023/04/10 02:41:18;;;;;;;;;;;;;;;7.00;74.02;101911.47;5023390;28;1959;-76
2023/04/10 02:43:44;;;;;;;;;;;;;;;6.97;73.33;101903.84;5040998;28;1006;-76
2023/04/10 02:46:09;;;;;;;;;;;;;;;6.95;74.08;101906.53;5041599;28;1074;-76
2023/04/10 02:48:34;;;;;;;;;;;;;;;6.90;73.81;101901.56;5026610;28;1276;-76
2023/04/10 02:51:00;;;;;;;;;;;;;;;6.87;73.29;101896.56;5033331;28;1160;-76
2023/04/10 02:53:25;;;;;;;;;;;;;;;6.84;74.46;101899.31;5044491;28;1152;-76
2023/04/10 02:55:51;;;;;;;;;;;;;;;6.85;73.68;101898.38;5037421;28;1145;-76
2023/04/10 02:58:16;;;;;;;;;;;;;;;6.83;73.56;101905.38;5045531;28;1154;-76
2023/04/10 03:00:46;;;;;;;;;;;;;;;6.79;73.64;101903.84;5037243;28;1898;-76
2023/04/10 03:03:11;;;;;;;;;;;;;;;6.75;74.08;101904.88;5034089;28;1128;-76
2023/04/10 03:05:36;;;;;;;;;;;;;;;6.74;74.22;101905.81;5033054;28;1066;-76
2023/04/10 03:08:02;;;;;;;;;;;;;;;6.72;74.81;101904.22;5035820;28;1152;-76
2023/04/10 03:10:28;;;;;;;;;;;;;;;6.74;74.90;101910.97;5018534;28;1133;-76
2023/04/10 03:12:53;;;;;;;;;;;;;;;6.73;74.77;101908.47;5030658;28;1179;-77
2023/04/10 03:15:18;;;;;;;;;;;;;;;6.72;74.72;101912.78;5037207;28;1144;-76
2023/04/10 03:17:43;;;;;;;;;;;;;;;6.73;74.95;101909.28;5031995;28;1139;-76
2023/04/10 03:20:09;;;;;;;;;;;;;;;6.72;74.96;101907.63;5038247;28;1024;-76
2023/04/10 03:22:34;;;;;;;;;;;;;;;6.71;74.06;101905.97;5037971;28;1926;-77
2023/04/10 03:25:00;;;;;;;;;;;;;;;6.67;74.24;101914.75;5035724;28;1081;-76
2023/04/10 03:27:25;;;;;;;;;;;;;;;6.64;74.82;101912.31;5037777;28;1072;-76
2023/04/10 03:29:51;;;;;;;;;;;;;;;6.62;75.13;101906.41;5033266;28;1022;-76
2023/04/10 03:32:16;;;;;;;;;;;;;;;6.57;74.92;101905.78;5039513;28;979;-76
2023/04/10 03:34:41;;;;;;;;;;;;;;;6.55;74.41;101905.03;5031362;28;1243;-76
2023/04/10 03:37:06;;;;;;;;;;;;;;;6.49;74.86;101901.00;5039387;28;1050;-76
2023/04/10 03:39:32;;;;;;;;;;;;;;;6.44;74.82;101891.81;5023373;28;1128;-76
2023/04/10 03:41:57;;;;;;;;;;;;;;;6.42;75.42;101888.44;5041565;28;1967;-76
2023/04/10 03:44:22;;;;;;;;;;;;;;;6.38;75.45;101883.47;5040115;28;981;-77
2023/04/10 03:46:48;;;;;;;;;;;;;;;6.35;74.91;101881.00;5043494;28;994;-76
2023/04/10 03:49:13;;;;;;;;;;;;;;;6.33;75.40;101890.56;5040952;28;1053;-76
2023/04/10 03:51:38;;;;;;;;;;;;;;;6.31;75.62;101882.09;5021852;28;1145;-76
2023/04/10 03:54:03;;;;;;;;;;;;;;;6.28;75.38;101877.06;5040300;28;1366;-76
2023/04/10 03:56:29;;;;;;;;;;;;;;;6.27;74.75;101880.53;5039422;28;1319;-76
2023/04/10 03:58:54;;;;;;;;;;;;;;;6.25;75.16;101882.38;5037363;28;1047;-77
2023/04/10 04:01:19;;;;;;;;;;;;;;;6.24;75.11;101875.53;5035859;28;1906;-76
2023/04/10 04:03:45;;;;;;;;;;;;;;;6.25;75.41;101876.34;5033373;28;1384;-76
2023/04/10 04:06:10;;;;;;;;;;;;;;;6.21;75.69;101875.69;5042667;28;1098;-76
2023/04/10 04:08:37;;;;;;;;;;;;;;;6.21;75.62;101869.69;5019163;28;1128;-75
2023/04/10 04:11:02;;;;;;;;;;;;;;;6.17;74.90;101869.00;5031473;28;1441;-76
2023/04/10 04:13:27;;;;;;;;;;;;;;;6.16;75.46;101867.31;5037831;28;1080;-76
2023/04/10 04:15:53;;;;;;;;;;;;;;;6.15;75.88;101868.25;5038523;28;1010;-77
2023/04/10 04:18:18;;;;;;;;;;;;;;;6.11;75.87;101858.97;5026850;28;1299;-76
2023/04/10 04:20:43;;;;;;;;;;;;;;;6.10;75.53;101857.31;5040982;28;1910;-77
2023/04/10 04:23:08;;;;;;;;;;;;;;;6.07;75.57;101860.00;5049069;28;1163;-76
2023/04/10 04:25:34;;;;;;;;;;;;;;;6.05;76.15;101846.38;5028189;28;1433;-76
2023/04/10 04:28:00;;;;;;;;;;;;;;;6.01;75.24;101853.41;5025005;28;1345;-77
2023/04/10 04:30:25;;;;;;;;;;;;;;;5.97;75.34;101845.91;5042118;28;1025;-76
2023/04/10 04:32:50;;;;;;;;;;;;;;;5.92;75.64;101853.00;5016054;28;1316;-76
2023/04/10 04:35:15;;;;;;;;;;;;;;;5.88;76.28;101851.44;5047508;28;982;-76
2023/04/10 04:37:41;;;;;;;;;;;;;;;5.85;76.23;101845.53;5038975;28;1233;-76
2023/04/10 04:40:06;;;;;;;;;;;;;;;5.85;75.86;101848.13;5035573;28;1588;-76
2023/04/10 04:42:31;;;;;;;;;;;;;;;5.88;76.47;101856.59;5021821;28;1902;-76
2023/04/10 04:44:57;;;;;;;;;;;;;;;5.88;76.32;101859.16;5038864;28;1076;-77
2023/04/10 04:47:23;;;;;;;;;;;;;;;5.85;75.83;101842.97;5034045;28;1157;-76
2023/04/10 04:49:48;;;;;;;;;;;;;;;5.83;76.00;101849.91;5040855;28;915;-76
2023/04/10 04:52:13;;;;;;;;;;;;;;;5.84;75.96;101846.41;5036706;28;1074;-76
2023/04/10 04:54:39;;;;;;;;;;;;;;;5.83;76.11;101841.34;5035242;28;1011;-76
2023/04/10 04:57:06;;;;;;;;;;;;;;;5.83;76.47;101837.03;5036130;28;1069;-77
2023/04/10 04:59:31;;;;;;;;;;;;;;;5.82;75.72;101827.63;5033291;28;1162;-76
2023/04/10 05:01:56;;;;;;;;;;;;;;;5.78;76.33;101841.53;5037154;28;1902;-77
2023/04/10 05:04:21;;;;;;;;;;;;;;;5.75;76.28;101831.41;5021618;28;1188;-76
2023/04/10 05:06:47;;;;;;;;;;;;;;;5.74;76.12;101824.59;5018471;28;1459;-76
2023/04/10 05:09:12;;;;;;;;;;;;;;;5.71;76.26;101835.00;5025881;28;1253;-76
2023/04/10 05:11:37;;;;;;;;;;;;;;;5.69;76.53;101831.69;5033721;28;1085;-76
2023/04/10 05:14:02;;;;;;;;;;;;;;;5.69;77.07;101831.69;5036165;28;1108;-76
2023/04/10 05:16:27;;;;;;;;;;;;;;;5.69;76.89;101831.69;5045869;28;1110;-75
2023/04/10 05:18:53;;;;;;;;;;;;;;;5.69;77.08;101818.81;5030339;28;1227;-76
2023/04/10 05:21:18;;;;;;;;;;;;;;;5.69;76.39;101821.38;5042869;28;1945;-76
2023/04/10 05:23:44;;;;;;;;;;;;;;;5.69;77.27;101816.25;5033534;28;1085;-76
2023/04/10 05:26:09;;;;;;;;;;;;;;;5.66;76.84;101816.38;5041184;28;982;-76
2023/04/10 05:28:34;;;;;;;;;;;;;;;5.64;77.61;101813.03;5036547;28;1073;-76
2023/04/10 05:30:59;;;;;;;;;;;;;;;5.63;77.22;101806.22;5039804;28;1369;-76
2023/04/10 05:33:25;;;;;;;;;;;;;;;5.65;76.99;101809.56;5026282;28;1062;-77
2023/04/10 05:35:52;;;;;;;;;;;;;;;5.64;77.70;101800.16;5043318;28;1011;-76
2023/04/10 05:38:17;;;;;;;;;;;;;;;5.66;77.33;101816.38;5041439;28;1208;-75
2023/04/10 05:40:45;;;;;;;;;;;;;;;5.65;77.72;101817.28;5041682;28;1917;-76
2023/04/10 05:43:11;;;;;;;;;;;;;;;5.68;77.51;101814.59;5028249;28;1413;-76
2023/04/10 05:45:36;;;;;;;;;;;;;;;5.71;77.21;101811.00;5036262;28;1124;-79
2023/04/10 05:48:01;;;;;;;;;;;;;;;5.75;77.40;101810.81;5038473;28;1006;-75
2023/04/10 05:50:26;;;;;;;;;;;;;;;5.75;77.19;101800.53;5043637;28;1151;-76
2023/04/10 05:52:52;;;;;;;;;;;;;;;5.79;77.12;101809.78;5040879;28;1132;-76
2023/04/10 05:55:17;;;;;;;;;;;;;;;5.81;77.34;101807.97;5037169;28;1084;-76
2023/04/10 05:57:42;;;;;;;;;;;;;;;5.83;78.02;101803.56;5039388;28;1077;-76
2023/04/10 06:00:08;;;;;;;;;;;;;;;5.86;77.23;101806.00;5030219;28;2104;-76
2023/04/10 06:02:34;;;;;;;;;;;;;;;5.89;77.90;101807.59;5039649;28;1974;-76
2023/04/10 06:04:59;;;;;;;;;;;;;;;5.94;78.45;101812.56;5039876;28;970;-77
2023/04/10 06:07:25;;;;;;;;;;;;;;;5.98;77.43;101806.38;5038356;28;1161;-75
2023/04/10 06:09:51;;;;;;;;;;;;;;;5.99;77.59;101802.91;5033600;28;949;-76
2023/04/10 06:12:16;;;;;;;;;;;;;;;6.05;77.60;101807.75;5042577;28;1163;-76
2023/04/10 06:14:41;;;;;;;;;;;;;;;6.09;77.79;101809.28;5032185;28;1502;-76
2023/04/10 06:17:06;;;;;;;;;;;;;;;6.13;77.80;101810.78;5023772;28;1340;-76
2023/04/10 06:19:32;;;;;;;;;;;;;;;6.18;77.73;101803.69;5036227;28;1198;-76
2023/04/10 06:21:57;;;;;;;;;;;;;;;6.21;78.12;101798.41;5042177;28;1898;-76
2023/04/10 06:24:22;;;;;;;;;;;;;;;6.26;78.77;101791.28;5035682;28;1234;-76
2023/04/10 06:26:47;;;;;;;;;;;;;;;6.31;77.97;101789.34;5041696;28;1092;-75
2023/04/10 06:29:12;;;;;;;;;;;;;;;6.36;78.14;101796.81;5036434;28;1078;-75
2023/04/10 06:31:38;;;;;;;;;;;;;;;6.41;77.94;101783.72;5035246;28;1026;-76
2023/04/10 06:34:03;;;;;;;;;;;;;;;6.48;78.09;101779.91;5037031;28;1101;-76
2023/04/10 06:36:28;;;;;;;;;;;;;;;6.52;77.64;101777.13;5027321;28;1318;-75
2023/04/10 06:38:53;;;;;;;;;;;;;;;6.57;78.75;101767.44;5034811;28;1014;-76
2023/04/10 06:41:19;;;;;;;;;;;;;;;6.62;78.43;101767.19;5037134;28;1890;-76
2023/04/10 06:43:45;;;;;;;;;;;;;;;6.69;79.27;101768.56;5038295;28;1096;-76
2023/04/10 06:46:10;;;;;;;;;;;;;;;6.74;78.73;101766.59;5035922;28;1011;-76
2023/04/10 06:48:35;;;;;;;;;;;;;;;6.81;77.78;101760.19;5033152;28;935;-78
2023/04/10 06:51:01;;;;;;;;;;;;;;;6.87;78.68;101766.78;5038307;28;1019;-76
2023/04/10 06:53:26;;;;;;;;;;;;;;;6.95;78.26;101748.38;5037597;28;1072;-77
2023/04/10 06:55:51;;;;;;;;;;;;;;;7.02;78.09;101747.13;5034904;28;1014;-76
2023/04/10 06:58:16;;;;;;;;;;;;;;;7.08;77.55;101744.22;5025188;28;1237;-76
2023/04/10 07:00:42;;;;;;;;;;;;;;;7.17;77.98;101738.59;5024589;28;1915;-77
2023/04/10 07:03:07;;;;;;;;;;;;;;;7.23;77.66;101737.44;5029037;28;1077;-76
2023/04/10 07:05:32;;;;;;;;;;;;;;;7.28;77.46;101733.66;5020184;28;1412;-77
2023/04/10 07:07:57;;;;;;;;;;;;;;;7.33;77.35;101729.09;5036504;28;1387;-76
2023/04/10 07:10:23;;;;;;;;;;;;;;;7.37;77.97;101725.44;5041464;28;1147;-76
2023/04/10 07:12:49;;;;;;;;;;;;;;;7.42;77.59;101728.63;5034618;28;1104;-78
2023/04/10 07:15:14;;;;;;;;;;;;;;;7.49;77.17;101728.28;5044888;28;1111;-75
2023/04/10 07:17:40;;;;;;;;;;;;;;;7.52;76.79;101712.66;5036549;28;1149;-78
2023/04/10 07:20:05;;;;;;;;;;;;;;;7.58;77.19;101717.47;5034620;28;1130;-76
2023/04/10 07:22:31;;;;;;;;;;;;;;;7.63;77.23;101700.00;5043123;28;1902;-78
2023/04/10 07:24:59;;;;;;;;;;;;;;;7.69;76.70;101694.47;5031064;28;1074;-76
2023/04/10 07:27:25;;;;;;;;;;;;;;;7.76;76.72;101695.78;5030659;28;1084;-76
2023/04/10 07:29:53;;;;;;;;;;;;;;;7.80;76.95;101692.13;5027382;28;1140;-75
2023/04/10 07:32:18;;;;;;;;;;;;;;;7.88;76.00;101678.78;5037337;28;1085;-76
2023/04/10 07:34:43;;;;;;;;;;;;;;;7.94;76.04;101684.44;5033956;28;1097;-76
2023/04/10 07:37:08;;;;;;;;;;;;;;;8.02;76.22;101685.72;5030004;28;1089;-77
2023/04/10 07:39:34;;;;;;;;;;;;;;;8.12;76.22;101686.88;5034612;28;1073;-76
2023/04/10 07:41:59;;;;;;;;;;;;;;;8.18;75.86;101676.19;5038086;28;1890;-76
2023/04/10 07:44:25;;;;;;;;;;;;;;;8.24;75.84;101673.25;5025413;28;1395;-76
2023/04/10 07:46:51;;;;;;;;;;;;;;;8.32;75.99;101663.31;5027462;28;1305;-76
2023/04/10 07:49:16;;;;;;;;;;;;;;;8.42;75.80;101656.69;5042731;28;821;-76
2023/04/10 07:51:41;;;;;;;;;;;;;;;8.51;75.51;101653.56;5034841;28;1007;-76
2023/04/10 07:54:06;;;;;;;;;;;;;;;8.62;74.87;101650.34;5034017;28;1003;-76
2023/04/10 07:56:32;;;;;;;;;;;;;;;8.74;74.44;101653.94;5039353;28;1143;-75
2023/04/10 07:59:00;;;;;;;;;;;;;;;8.85;74.23;101651.53;5036083;28;991;-76
2023/04/10 08:01:26;;;;;;;;;;;;;;;8.98;73.80;101652.44;5039765;28;1980;-76
2023/04/10 08:03:51;;;;;;;;;;;;;;;9.12;72.72;101643.84;5016925;28;999;-75
2023/04/10 08:06:16;;;;;;;;;;;;;;;9.24;71.81;101639.66;5036657;28;1270;-76
2023/04/10 08:08:42;;;;;;;;;;;;;;;9.36;72.29;101636.28;5037113;28;1428;-77
2023/04/10 08:11:42;;;;;;;;;;;;;;;9.48;72.04;101632.91;5024070;28;1468;-76
2023/04/10 08:14:08;;;;;;;;;;;;;;;9.62;71.20;101624.22;5000753;28;1543;-77
2023/04/10 08:16:34;;;;;;;;;;;;;;;9.70;71.17;101634.94;5008900;28;1256;-76
2023/04/10 08:18:59;;;;;;;;;;;;;;;9.79;70.00;101628.31;5028340;28;1332;-76
2023/04/10 08:21:26;;;;;;;;;;;;;;;9.87;70.19;101626.06;5038322;28;1953;-76
2023/04/10 08:23:55;;;;;;;;;;;;;;;9.95;69.12;101622.97;5024908;28;1306;-76
2023/04/10 08:26:20;;;;;;;;;;;;;;;9.99;68.94;101620.06;5043697;28;1072;-76
2023/04/10 08:28:48;;;;;;;;;;;;;;;10.05;68.32;101624.84;5026254;28;1276;-76
2023/04/10 08:31:14;;;;;;;;;;;;;;;10.11;68.16;101619.25;5043983;28;1048;-76
2023/04/10 08:33:40;;;;;;;;;;;;;;;10.19;67.59;101620.50;5039486;28;1010;-75
2023/04/10 08:36:05;;;;;;;;;;;;;;;10.25;67.60;101626.13;5030600;28;1222;-76
2023/04/10 08:38:30;;;;;;;;;;;;;;;10.32;68.58;101621.34;5036872;28;1001;-76
2023/04/10 08:40:56;;;;;;;;;;;;;;;10.42;67.96;101614.63;5042061;28;1902;-77
2023/04/10 08:43:21;;;;;;;;;;;;;;;10.49;66.91;101613.25;5041198;28;1150;-76
2023/04/10 08:45:47;;;;;;;;;;;;;;;10.56;66.56;101604.13;5037381;28;1037;-76
2023/04/10 08:48:13;;;;;;;;;;;;;;;10.64;66.85;101601.81;5038187;28;1114;-77
2023/04/10 08:50:40;;;;;;;;;;;;;;;10.74;66.67;101601.19;5047215;28;1107;-76
2023/04/10 08:53:09;;;;;;;;;;;;;;;10.78;65.86;101600.88;5024239;28;978;-77
2023/04/10 08:55:35;;;;;;;;;;;;;;;10.84;66.88;101602.22;5030748;28;1208;-76
2023/04/10 08:58:00;;;;;;;;;;;;;;;10.88;65.70;101598.44;5042396;28;1145;-77
2023/04/10 09:00:27;;;;;;;;;;;;;;;10.90;66.31;101601.78;5042565;28;1145;-76
2023/04/10 09:02:56;;;;;;;;;;;;;;;10.92;65.79;101597.31;5033343;28;1997;-76
2023/04/10 09:05:22;;;;;;;;;;;;;;;10.95;66.40;101604.84;5039166;28;1053;-76
2023/04/10 09:07:48;;;;;;;;;;;;;;;10.98;64.81;101594.28;5021865;28;1252;-76
2023/04/10 09:10:13;;;;;;;;;;;;;;;11.00;65.59;101592.38;5038787;28;1325;-76
2023/04/10 09:12:45;;;;;;;;;;;;;;;11.05;65.09;101592.06;5037391;28;1054;-76
2023/04/10 09:15:11;;;;;;;;;;;;;;;11.08;64.98;101582.31;5042744;28;1182;-77
2023/04/10 09:17:36;;;;;;;;;;;;;;;11.12;65.34;101583.72;5035200;28;1164;-76
2023/04/10 09:20:01;;;;;;;;;;;;;;;11.15;64.26;101575.72;5039597;28;1231;-76
2023/04/10 09:22:34;;;;;;;;;;;;;;;11.17;64.18;101573.84;5037725;28;1918;-76
2023/04/10 09:24:59;;;;;;;;;;;;;;;11.19;64.34;101565.13;5042793;28;980;-76
2023/04/10 09:27:30;;;;;;;;;;;;;;;11.22;65.15;101559.69;5040439;28;1106;-76
2023/04/10 09:29:55;;;;;;;;;;;;;;;11.26;64.11;101555.94;5044183;28;1018;-76
2023/04/10 09:32:39;;;;;;;;;;;;;;;11.28;65.12;101554.06;5037028;28;1060;-77
2023/04/10 09:35:08;;;;;;;;;;;;;;;11.30;64.83;101547.84;5034272;28;1026;-76
2023/04/10 09:37:36;;;;;;;;;;;;;;;11.37;65.39;101548.22;5040425;28;1199;-76
2023/04/10 09:40:02;;;;;;;;;;;;;;;11.41;64.68;101536.63;5036334;28;1220;-77
2023/04/10 09:42:38;;;;;;;;;;;;;;;11.45;64.42;101532.88;5037411;28;1949;-79
2023/04/10 09:45:03;;;;;;;;;;;;;;;11.47;64.94;101520.63;5033894;28;1144;-78
2023/04/10 09:47:29;;;;;;;;;;;;;;;11.50;64.83;101517.78;5037818;28;1158;-77
2023/04/10 09:49:55;;;;;;;;;;;;;;;11.53;64.96;101517.56;5020503;28;1241;-76
2023/04/10 09:52:31;;;;;;;;;;;;;;;11.56;64.46;101509.53;5023307;28;1281;-77
2023/04/10 09:54:57;;;;;;;;;;;;;;;11.62;63.83;101503.03;5040513;28;1090;-76
2023/04/10 09:57:23;;;;;;;;;;;;;;;11.65;62.94;101501.06;5040260;28;1467;-76
2023/04/10 09:59:50;;;;;;;;;;;;;;;11.69;63.11;101505.06;5034478;28;1127;-78
2023/04/10 10:02:19;;;;;;;;;;;;;;;11.75;63.51;101497.75;5031697;28;1959;-76
2023/04/10 10:04:46;;;;;;;;;;;;;;;11.79;62.83;101501.78;5033568;28;1424;-77
2023/04/10 10:07:12;;;;;;;;;;;;;;;11.83;62.79;101492.84;5040343;28;1013;-77
2023/04/10 10:09:37;;;;;;;;;;;;;;;11.88;62.24;101495.91;5019467;28;1179;-78
2023/04/10 10:12:02;;;;;;;;;;;;;;;11.94;62.29;101491.06;5025355;28;1370;-77
2023/04/10 10:14:29;;;;;;;;;;;;;;;11.97;61.92;101482.19;5037209;28;1362;-77
2023/04/10 10:16:56;;;;;;;;;;;;;;;12.03;63.03;101483.50;5039470;28;989;-78
2023/04/10 10:19:38;;;;;;;;;;;;;;;12.08;61.88;101487.41;5036933;28;1108;-77
2023/04/10 10:22:04;;;;;;;;;;;;;;;12.10;62.06;101480.31;5039299;28;1902;-77
2023/04/10 10:24:30;;;;;;;;;;;;;;;12.13;61.27;101480.06;5038467;28;1089;-77
2023/04/10 10:26:57;;;;;;;;;;;;;;;12.18;61.21;101470.13;5040053;28;939;-77
2023/04/10 10:29:22;;;;;;;;;;;;;;;12.22;61.49;101466.38;5039672;28;1065;-77
2023/04/10 10:31:48;;;;;;;;;;;;;;;12.35;60.76;101452.38;5038812;28;1125;-77
2023/04/10 10:34:14;;;;;;;;;;;;;;;12.41;62.06;101444.09;5036795;28;1140;-78
2023/04/10 10:36:39;;;;;;;;;;;;;;;12.47;61.35;101451.41;5015377;28;1244;-79
2023/04/10 10:39:23;;;;;;;;;;;;;;;12.55;61.62;101441.22;5022396;28;1367;-78
2023/04/10 10:42:09;;;;;;;;;;;;;;;12.65;61.58;101439.53;5020331;28;1895;-77
2023/04/10 10:44:44;;;;;;;;;;;;;;;12.75;61.35;101443.03;5026355;28;1222;-77
2023/04/10 10:47:21;;;;;;;;;;;;;;;12.86;60.72;101436.16;5016757;28;1150;-76
2023/04/10 10:50:00;;;;;;;;;;;;;;;12.93;60.53;101426.88;5016716;28;1403;-77
2023/04/10 10:52:45;;;;;;;;;;;;;;;12.93;60.75;101419.88;5035790;28;939;-77
2023/04/10 10:55:26;;;;;;;;;;;;;;;13.02;60.96;101413.13;5026733;28;1114;-77
2023/04/10 10:57:53;;;;;;;;;;;;;;;13.11;61.15;101411.50;5037347;28;1177;-79
2023/04/10 11:00:19;;;;;;;;;;;;;;;13.17;60.00;101401.41;5032436;28;1097;-78
2023/04/10 11:02:44;;;;;;;;;;;;;;;13.18;60.41;101395.25;5029583;28;1959;-78
2023/04/10 11:05:30;;;;;;;;;;;;;;;13.22;59.98;101399.28;5032569;28;1136;-79
2023/04/10 11:07:58;;;;;;;;;;;;;;;13.31;60.25;101389.06;5033590;28;1004;-78
2023/04/10 11:10:42;;;;;;;;;;;;;;;13.35;59.64;101385.22;5039308;28;1044;-78
2023/04/10 11:13:14;;;;;;;;;;;;;;;13.38;59.94;101390.19;5036101;28;1195;-78
2023/04/10 11:15:40;;;;;;;;;;;;;;;13.46;59.60;101382.53;5031470;28;1135;-77
2023/04/10 11:18:06;;;;;;;;;;;;;;;13.54;59.08;101380.13;5035745;28;1156;-78
2023/04/10 11:20:51;;;;;;;;;;;;;;;13.61;59.64;101364.78;5034649;28;1076;-77
2023/04/10 11:23:19;;;;;;;;;;;;;;;13.69;59.12;101373.56;5034546;28;1138;-78
2023/04/10 11:25:48;;;;;;;;;;;;;;;13.74;58.38;101360.97;5035455;28;1174;-76
2023/04/10 11:28:32;;;;;;;;;;;;;;;13.83;58.37;101354.16;5028475;28;1127;-78
2023/04/10 11:31:17;;;;;;;;;;;;;;;13.89;58.55;101352.78;5036499;28;1080;-79
2023/04/10 11:33:42;;;;;;;;;;;;;;;13.99;58.47;101338.81;5016438;28;1200;-78
2023/04/10 11:36:08;;;;;;;;;;;;;;;14.04;58.07;101346.22;5037236;28;1027;-77
2023/04/10 11:38:33;;;;;;;;;;;;;;;14.11;57.22;101331.69;5037745;28;1096;-77
2023/04/10 11:41:03;;;;;;;;;;;;;;;14.19;55.61;101329.22;5015791;28;1894;-78
2023/04/10 11:43:29;;;;;;;;;;;;;;;14.27;56.25;101333.75;5034729;28;1034;-76
2023/04/10 11:46:06;;;;;;;;;;;;;;;14.31;56.55;101325.50;5030895;28;1144;-77
2023/04/10 11:48:31;;;;;;;;;;;;;;;14.38;56.06;101320.56;5013713;28;1228;-77
2023/04/10 11:50:58;;;;;;;;;;;;;;;14.41;55.60;101312.47;5033510;28;998;-77
2023/04/10 11:53:25;;;;;;;;;;;;;;;14.46;55.71;101319.91;5032669;28;1403;-77
2023/04/10 11:55:50;;;;;;;;;;;;;;;14.46;55.86;101314.69;5033723;28;968;-78
2023/04/10 11:58:22;;;;;;;;;;;;;;;14.52;55.96;101319.38;5033249;28;1081;-77
2023/04/10 12:00:54;;;;;;;;;;;;;;;14.59;55.86;101304.78;5039742;28;1238;-78
2023/04/10 12:03:30;;;;;;;;;;;;;;;14.64;55.54;101307.81;5037222;28;1286;-77
2023/04/10 12:05:55;;;;;;;;;;;;;;;14.69;55.75;101299.56;5038588;28;1168;-76
2023/04/10 12:08:28;;;;;;;;;;;;;;;14.76;55.82;101298.84;5039972;28;1272;-77
2023/04/10 12:10:54;;;;;;;;;;;;;;;14.80;55.35;101302.84;5029329;28;1208;-77
2023/04/10 12:13:23;;;;;;;;;;;;;;;14.82;54.69;101295.69;5040589;28;1149;-77
2023/04/10 12:15:48;;;;;;;;;;;;;;;14.84;54.11;101293.75;5020837;28;1631;-78
2023/04/10 12:18:14;;;;;;;;;;;;;;;14.83;53.07;101286.06;5039512;28;1135;-77
2023/04/10 12:20:39;;;;;;;;;;;;;;;14.88;53.84;101283.84;5042420;28;1378;-76
2023/04/10 12:23:05;;;;;;;;;;;;;;;15.00;53.28;101271.44;5039340;28;1955;-77
2023/04/10 12:25:30;;;;;;;;;;;;;;;15.07;54.08;101277.72;5039901;28;1033;-82
2023/04/10 12:27:55;;;;;;;;;;;;;;;15.20;53.89;101267.78;5036825;28;990;-77
2023/04/10 12:30:21;;;;;;;;;;;;;;;15.27;53.51;101271.47;5043081;28;1059;-77
2023/04/10 12:32:52;;;;;;;;;;;;;;;15.27;53.11;101266.25;5038314;28;1076;-78
2023/04/10 12:35:17;;;;;;;;;;;;;;;15.24;52.48;101253.44;5029225;28;1264;-76
2023/04/10 12:37:45;;;;;;;;;;;;;;;15.19;53.09;101257.47;5040147;28;1088;-78
2023/04/10 12:40:11;;;;;;;;;;;;;;;15.15;53.86;101254.34;5029686;28;1205;-79
2023/04/10 12:42:40;;;;;;;;;;;;;;;15.13;53.38;101240.56;5037381;28;1894;-81
2023/04/10 12:45:08;;;;;;;;;;;;;;;15.09;52.69;101245.28;5019336;28;1317;-79
2023/04/10 12:47:41;;;;;;;;;;;;;;;15.08;54.13;101237.56;5037394;28;1167;-78
2023/04/10 12:50:10;;;;;;;;;;;;;;;15.07;53.10;101233.31;5038357;28;1022;-80
2023/04/10 12:52:39;;;;;;;;;;;;;;;15.03;53.65;101226.75;5021499;28;1149;-79
2023/04/10 12:55:13;;;;;;;;;;;;;;;15.00;53.69;101225.25;5042116;28;1094;-79